sensor_id;sensor_type;location;lat;lon;timestamp;temperature;humidity
76305;DHT22;65111;50.536;19.204;2023-04-25T00:01:46;11.00;80.30
76305;DHT22;65111;50.536;19.204;2023-04-25T00:04:12;10.80;80.30
76305;DHT22;65111;50.536;19.204;2023-04-25T00:06:38;11.00;80.50
76305;DHT22;65111;50.536;19.204;2023-04-25T00:09:06;10.90;80.20
76305;DHT22;65111;50.536;19.204;2023-04-25T00:11:36;10.90;80.20
76305;DHT22;65111;50.536;19.204;2023-04-25T00:14:04;10.90;80.40
76305;DHT22;65111;50.536;19.204;2023-04-25T00:16:30;10.90;80.30
76305;DHT22;65111;50.536;19.204;2023-04-25T00:19:00;10.90;80.50
76305;DHT22;65111;50.536;19.204;2023-04-25T00:21:27;10.90;80.60
76305;DHT22;65111;50.536;19.204;2023-04-25T00:23:54;10.80;80.40
76305;DHT22;65111;50.536;19.204;2023-04-25T00:26:21;10.80;80.40
76305;DHT22;65111;50.536;19.204;2023-04-25T00:28:47;10.80;80.60
76305;DHT22;65111;50.536;19.204;2023-04-25T00:31:14;10.80;80.50
76305;DHT22;65111;50.536;19.204;2023-04-25T00:33:40;10.90;80.60
76305;DHT22;65111;50.536;19.204;2023-04-25T00:36:07;10.80;80.80
76305;DHT22;65111;50.536;19.204;2023-04-25T00:38:33;10.80;80.80
76305;DHT22;65111;50.536;19.204;2023-04-25T00:40:59;10.90;80.70
76305;DHT22;65111;50.536;19.204;2023-04-25T00:43:26;10.80;81.10
76305;DHT22;65111;50.536;19.204;2023-04-25T00:45:52;10.90;81.20
76305;DHT22;65111;50.536;19.204;2023-04-25T00:48:21;10.90;81.00
76305;DHT22;65111;50.536;19.204;2023-04-25T00:50:57;11.00;81.10
76305;DHT22;65111;50.536;19.204;2023-04-25T00:53:27;11.00;81.40
76305;DHT22;65111;50.536;19.204;2023-04-25T00:55:54;11.00;81.30
76305;DHT22;65111;50.536;19.204;2023-04-25T00:58:21;11.00;81.40
76305;DHT22;65111;50.536;19.204;2023-04-25T01:00:48;11.00;81.40
76305;DHT22;65111;50.536;19.204;2023-04-25T01:03:16;11.10;81.40
76305;DHT22;65111;50.536;19.204;2023-04-25T01:05:45;11.10;81.30
76305;DHT22;65111;50.536;19.204;2023-04-25T01:08:13;11.10;81.50
76305;DHT22;65111;50.536;19.204;2023-04-25T01:10:39;11.20;81.30
76305;DHT22;65111;50.536;19.204;2023-04-25T01:13:07;11.10;81.30
76305;DHT22;65111;50.536;19.204;2023-04-25T01:15:33;11.10;81.40
76305;DHT22;65111;50.536;19.204;2023-04-25T01:18:01;11.20;81.50
76305;DHT22;65111;50.536;19.204;2023-04-25T01:20:28;11.10;81.50
76305;DHT22;65111;50.536;19.204;2023-04-25T01:22:55;11.20;81.50
76305;DHT22;65111;50.536;19.204;2023-04-25T01:25:22;11.20;81.80
76305;DHT22;65111;50.536;19.204;2023-04-25T01:27:48;11.20;81.60
76305;DHT22;65111;50.536;19.204;2023-04-25T01:30:15;11.20;81.60
76305;DHT22;65111;50.536;19.204;2023-04-25T01:32:42;11.10;81.60
76305;DHT22;65111;50.536;19.204;2023-04-25T01:35:11;11.20;81.70
76305;DHT22;65111;50.536;19.204;2023-04-25T01:37:41;11.20;81.70
76305;DHT22;65111;50.536;19.204;2023-04-25T01:40:09;11.10;81.60
76305;DHT22;65111;50.536;19.204;2023-04-25T01:42:37;11.20;81.60
76305;DHT22;65111;50.536;19.204;2023-04-25T01:45:05;11.20;81.50
76305;DHT22;65111;50.536;19.204;2023-04-25T01:47:31;11.10;81.80
76305;DHT22;65111;50.536;19.204;2023-04-25T01:49:57;11.10;81.70
76305;DHT22;65111;50.536;19.204;2023-04-25T01:52:23;11.00;81.50
76305;DHT22;65111;50.536;19.204;2023-04-25T01:54:50;10.90;81.70
76305;DHT22;65111;50.536;19.204;2023-04-25T01:57:16;10.90;81.80
76305;DHT22;65111;50.536;19.204;2023-04-25T01:59:43;10.80;82.00
76305;DHT22;65111;50.536;19.204;2023-04-25T02:02:09;10.90;82.10
76305;DHT22;65111;50.536;19.204;2023-04-25T02:04:35;10.90;82.10
76305;DHT22;65111;50.536;19.204;2023-04-25T02:07:02;10.90;82.10
76305;DHT22;65111;50.536;19.204;2023-04-25T02:09:28;10.90;81.90
76305;DHT22;65111;50.536;19.204;2023-04-25T02:11:54;10.90;82.10
76305;DHT22;65111;50.536;19.204;2023-04-25T02:14:20;10.80;82.10
76305;DHT22;65111;50.536;19.204;2023-04-25T02:16:47;10.70;82.20
76305;DHT22;65111;50.536;19.204;2023-04-25T02:19:12;10.70;81.90
76305;DHT22;65111;50.536;19.204;2023-04-25T02:21:38;10.70;81.80
76305;DHT22;65111;50.536;19.204;2023-04-25T02:24:05;10.70;82.10
76305;DHT22;65111;50.536;19.204;2023-04-25T02:26:31;10.70;82.00
76305;DHT22;65111;50.536;19.204;2023-04-25T02:28:57;10.70;81.80
76305;DHT22;65111;50.536;19.204;2023-04-25T02:31:23;10.70;81.90
76305;DHT22;65111;50.536;19.204;2023-04-25T02:33:49;10.60;81.70
76305;DHT22;65111;50.536;19.204;2023-04-25T02:36:15;10.60;81.60
76305;DHT22;65111;50.536;19.204;2023-04-25T02:38:41;10.60;81.40
76305;DHT22;65111;50.536;19.204;2023-04-25T02:41:07;10.50;81.50
76305;DHT22;65111;50.536;19.204;2023-04-25T02:43:33;10.40;81.40
76305;DHT22;65111;50.536;19.204;2023-04-25T02:45:59;10.50;81.50
76305;DHT22;65111;50.536;19.204;2023-04-25T02:48:25;10.40;81.50
76305;DHT22;65111;50.536;19.204;2023-04-25T02:50:51;10.40;81.70
76305;DHT22;65111;50.536;19.204;2023-04-25T02:53:17;10.40;81.90
76305;DHT22;65111;50.536;19.204;2023-04-25T02:55:43;10.40;82.10
76305;DHT22;65111;50.536;19.204;2023-04-25T02:58:09;10.40;82.00
76305;DHT22;65111;50.536;19.204;2023-04-25T03:00:35;10.40;81.80
76305;DHT22;65111;50.536;19.204;2023-04-25T03:03:01;10.40;81.70
76305;DHT22;65111;50.536;19.204;2023-04-25T03:05:27;10.40;81.70
76305;DHT22;65111;50.536;19.204;2023-04-25T03:07:53;10.30;81.50
76305;DHT22;65111;50.536;19.204;2023-04-25T03:10:19;10.40;81.60
76305;DHT22;65111;50.536;19.204;2023-04-25T03:12:45;10.30;81.40
76305;DHT22;65111;50.536;19.204;2023-04-25T03:15:11;10.30;81.50
76305;DHT22;65111;50.536;19.204;2023-04-25T03:17:37;10.20;81.60
76305;DHT22;65111;50.536;19.204;2023-04-25T03:20:04;10.20;81.70
76305;DHT22;65111;50.536;19.204;2023-04-25T03:22:31;10.20;81.70
76305;DHT22;65111;50.536;19.204;2023-04-25T03:24:57;10.10;81.80
76305;DHT22;65111;50.536;19.204;2023-04-25T03:27:23;10.10;81.90
76305;DHT22;65111;50.536;19.204;2023-04-25T03:29:49;10.00;81.90
76305;DHT22;65111;50.536;19.204;2023-04-25T03:32:15;10.00;81.70
76305;DHT22;65111;50.536;19.204;2023-04-25T03:34:41;10.00;81.80
76305;DHT22;65111;50.536;19.204;2023-04-25T03:37:07;9.90;81.70
76305;DHT22;65111;50.536;19.204;2023-04-25T03:39:33;9.90;81.80
76305;DHT22;65111;50.536;19.204;2023-04-25T03:41:58;9.90;81.60
76305;DHT22;65111;50.536;19.204;2023-04-25T03:44:24;9.90;81.60
76305;DHT22;65111;50.536;19.204;2023-04-25T03:46:50;9.80;81.60
76305;DHT22;65111;50.536;19.204;2023-04-25T03:49:16;9.90;81.70
76305;DHT22;65111;50.536;19.204;2023-04-25T03:51:42;9.80;81.50
76305;DHT22;65111;50.536;19.204;2023-04-25T03:54:08;9.90;81.30
76305;DHT22;65111;50.536;19.204;2023-04-25T03:56:34;9.80;81.30
76305;DHT22;65111;50.536;19.204;2023-04-25T03:59:00;9.80;81.20
76305;DHT22;65111;50.536;19.204;2023-04-25T04:01:26;9.90;81.10
76305;DHT22;65111;50.536;19.204;2023-04-25T04:03:52;9.80;81.10
76305;DHT22;65111;50.536;19.204;2023-04-25T04:06:18;9.80;81.00
76305;DHT22;65111;50.536;19.204;2023-04-25T04:08:46;9.80;80.80
76305;DHT22;65111;50.536;19.204;2023-04-25T04:11:12;9.90;80.90
76305;DHT22;65111;50.536;19.204;2023-04-25T04:13:38;9.90;80.90
76305;DHT22;65111;50.536;19.204;2023-04-25T04:16:05;9.80;80.70
76305;DHT22;65111;50.536;19.204;2023-04-25T04:18:31;9.80;80.70
76305;DHT22;65111;50.536;19.204;2023-04-25T04:20:59;9.90;80.70
76305;DHT22;65111;50.536;19.204;2023-04-25T04:23:25;9.80;80.60
76305;DHT22;65111;50.536;19.204;2023-04-25T04:25:53;9.90;80.50
76305;DHT22;65111;50.536;19.204;2023-04-25T04:28:19;10.00;80.20
76305;DHT22;65111;50.536;19.204;2023-04-25T04:30:46;10.10;80.00
76305;DHT22;65111;50.536;19.204;2023-04-25T04:33:12;10.10;79.70
76305;DHT22;65111;50.536;19.204;2023-04-25T04:35:38;10.20;79.40
76305;DHT22;65111;50.536;19.204;2023-04-25T04:38:04;10.20;79.20
76305;DHT22;65111;50.536;19.204;2023-04-25T04:40:30;10.10;79.10
76305;DHT22;65111;50.536;19.204;2023-04-25T04:42:57;10.20;79.00
76305;DHT22;65111;50.536;19.204;2023-04-25T04:45:23;10.10;78.80
76305;DHT22;65111;50.536;19.204;2023-04-25T04:47:50;10.10;78.80
76305;DHT22;65111;50.536;19.204;2023-04-25T04:50:16;10.00;78.50
76305;DHT22;65111;50.536;19.204;2023-04-25T04:52:42;10.00;78.70
76305;DHT22;65111;50.536;19.204;2023-04-25T04:55:08;10.10;78.50
76305;DHT22;65111;50.536;19.204;2023-04-25T04:57:35;10.10;78.40
76305;DHT22;65111;50.536;19.204;2023-04-25T05:00:02;10.00;78.10
76305;DHT22;65111;50.536;19.204;2023-04-25T05:02:30;10.00;77.90
76305;DHT22;65111;50.536;19.204;2023-04-25T05:04:56;10.00;77.90
76305;DHT22;65111;50.536;19.204;2023-04-25T05:07:22;10.00;77.70
76305;DHT22;65111;50.536;19.204;2023-04-25T05:09:48;10.00;77.70
76305;DHT22;65111;50.536;19.204;2023-04-25T05:12:15;10.00;77.50
76305;DHT22;65111;50.536;19.204;2023-04-25T05:14:40;10.00;77.30
76305;DHT22;65111;50.536;19.204;2023-04-25T05:17:06;10.00;77.40
76305;DHT22;65111;50.536;19.204;2023-04-25T05:19:34;10.10;77.40
76305;DHT22;65111;50.536;19.204;2023-04-25T05:22:00;10.00;77.40
76305;DHT22;65111;50.536;19.204;2023-04-25T05:24:26;10.00;77.10
76305;DHT22;65111;50.536;19.204;2023-04-25T05:26:52;10.00;77.30
76305;DHT22;65111;50.536;19.204;2023-04-25T05:29:18;10.00;77.30
76305;DHT22;65111;50.536;19.204;2023-04-25T05:31:45;10.10;77.20
76305;DHT22;65111;50.536;19.204;2023-04-25T05:34:10;10.20;77.20
76305;DHT22;65111;50.536;19.204;2023-04-25T05:36:36;10.20;77.30
76305;DHT22;65111;50.536;19.204;2023-04-25T05:39:02;10.30;77.10
76305;DHT22;65111;50.536;19.204;2023-04-25T05:41:30;10.40;77.00
76305;DHT22;65111;50.536;19.204;2023-04-25T05:43:55;10.50;76.70
76305;DHT22;65111;50.536;19.204;2023-04-25T05:46:21;10.60;76.60
76305;DHT22;65111;50.536;19.204;2023-04-25T05:48:47;10.70;76.50
76305;DHT22;65111;50.536;19.204;2023-04-25T05:51:13;10.70;76.20
76305;DHT22;65111;50.536;19.204;2023-04-25T05:53:39;10.90;76.00
76305;DHT22;65111;50.536;19.204;2023-04-25T05:56:06;11.00;75.70
76305;DHT22;65111;50.536;19.204;2023-04-25T05:58:32;11.00;75.50
76305;DHT22;65111;50.536;19.204;2023-04-25T06:00:58;11.00;75.20
76305;DHT22;65111;50.536;19.204;2023-04-25T06:03:24;11.10;75.20
76305;DHT22;65111;50.536;19.204;2023-04-25T06:05:50;11.20;74.60
76305;DHT22;65111;50.536;19.204;2023-04-25T06:08:16;11.20;74.30
76305;DHT22;65111;50.536;19.204;2023-04-25T06:10:42;11.20;74.10
76305;DHT22;65111;50.536;19.204;2023-04-25T06:13:08;11.40;73.70
76305;DHT22;65111;50.536;19.204;2023-04-25T06:15:34;11.40;73.90
76305;DHT22;65111;50.536;19.204;2023-04-25T06:18:00;11.40;73.80
76305;DHT22;65111;50.536;19.204;2023-04-25T06:20:26;11.60;73.50
76305;DHT22;65111;50.536;19.204;2023-04-25T06:22:52;11.70;73.60
76305;DHT22;65111;50.536;19.204;2023-04-25T06:25:18;12.00;73.30
76305;DHT22;65111;50.536;19.204;2023-04-25T06:27:44;12.20;72.70
76305;DHT22;65111;50.536;19.204;2023-04-25T06:30:10;12.40;72.20
76305;DHT22;65111;50.536;19.204;2023-04-25T06:32:38;12.60;71.80
76305;DHT22;65111;50.536;19.204;2023-04-25T06:35:05;12.80;70.10
76305;DHT22;65111;50.536;19.204;2023-04-25T06:37:31;13.00;69.50
76305;DHT22;65111;50.536;19.204;2023-04-25T06:39:57;13.20;68.40
76305;DHT22;65111;50.536;19.204;2023-04-25T06:42:23;13.40;67.70
76305;DHT22;65111;50.536;19.204;2023-04-25T06:44:49;13.50;67.30
76305;DHT22;65111;50.536;19.204;2023-04-25T06:47:15;13.70;66.20
76305;DHT22;65111;50.536;19.204;2023-04-25T06:49:41;13.70;66.10
76305;DHT22;65111;50.536;19.204;2023-04-25T06:52:07;13.90;65.50
76305;DHT22;65111;50.536;19.204;2023-04-25T06:54:34;14.20;64.80
76305;DHT22;65111;50.536;19.204;2023-04-25T06:57:00;14.30;64.40
76305;DHT22;65111;50.536;19.204;2023-04-25T06:59:26;14.50;63.60
76305;DHT22;65111;50.536;19.204;2023-04-25T07:01:52;14.60;62.50
76305;DHT22;65111;50.536;19.204;2023-04-25T07:04:18;14.70;62.20
76305;DHT22;65111;50.536;19.204;2023-04-25T07:06:44;14.70;62.10
76305;DHT22;65111;50.536;19.204;2023-04-25T07:09:12;14.60;61.80
76305;DHT22;65111;50.536;19.204;2023-04-25T07:11:38;14.60;62.00
76305;DHT22;65111;50.536;19.204;2023-04-25T07:14:04;14.60;61.60
76305;DHT22;65111;50.536;19.204;2023-04-25T07:16:31;14.60;61.50
76305;DHT22;65111;50.536;19.204;2023-04-25T07:18:57;14.60;62.00
76305;DHT22;65111;50.536;19.204;2023-04-25T07:21:22;14.60;62.40
76305;DHT22;65111;50.536;19.204;2023-04-25T07:23:48;14.70;61.80
76305;DHT22;65111;50.536;19.204;2023-04-25T07:26:14;14.70;61.60
76305;DHT22;65111;50.536;19.204;2023-04-25T07:28:40;14.70;61.60
76305;DHT22;65111;50.536;19.204;2023-04-25T07:31:06;14.70;61.60
76305;DHT22;65111;50.536;19.204;2023-04-25T07:33:33;14.80;61.20
76305;DHT22;65111;50.536;19.204;2023-04-25T07:35:59;14.70;61.00
76305;DHT22;65111;50.536;19.204;2023-04-25T07:38:25;14.70;60.70
76305;DHT22;65111;50.536;19.204;2023-04-25T07:40:51;14.70;60.50
76305;DHT22;65111;50.536;19.204;2023-04-25T07:43:17;14.60;60.60
76305;DHT22;65111;50.536;19.204;2023-04-25T07:45:44;14.60;60.70
76305;DHT22;65111;50.536;19.204;2023-04-25T07:48:10;14.50;60.60
76305;DHT22;65111;50.536;19.204;2023-04-25T07:50:36;14.40;60.40
76305;DHT22;65111;50.536;19.204;2023-04-25T07:53:02;14.50;60.30
76305;DHT22;65111;50.536;19.204;2023-04-25T07:55:28;14.30;60.50
76305;DHT22;65111;50.536;19.204;2023-04-25T07:57:54;14.30;60.60
76305;DHT22;65111;50.536;19.204;2023-04-25T08:00:20;14.40;60.70
76305;DHT22;65111;50.536;19.204;2023-04-25T08:02:46;14.40;60.80
76305;DHT22;65111;50.536;19.204;2023-04-25T08:05:12;14.40;60.80
76305;DHT22;65111;50.536;19.204;2023-04-25T08:07:40;14.60;60.60
76305;DHT22;65111;50.536;19.204;2023-04-25T08:10:08;14.60;60.20
76305;DHT22;65111;50.536;19.204;2023-04-25T08:12:34;14.70;60.00
76305;DHT22;65111;50.536;19.204;2023-04-25T08:14:59;14.80;60.10
76305;DHT22;65111;50.536;19.204;2023-04-25T08:17:26;14.90;59.30
76305;DHT22;65111;50.536;19.204;2023-04-25T08:19:52;15.10;59.60
76305;DHT22;65111;50.536;19.204;2023-04-25T08:22:18;15.30;59.60
76305;DHT22;65111;50.536;19.204;2023-04-25T08:24:44;15.50;58.70
76305;DHT22;65111;50.536;19.204;2023-04-25T08:27:10;15.70;58.00
76305;DHT22;65111;50.536;19.204;2023-04-25T08:29:36;15.90;56.70
76305;DHT22;65111;50.536;19.204;2023-04-25T08:32:02;16.10;55.70
76305;DHT22;65111;50.536;19.204;2023-04-25T08:34:28;16.20;55.30
76305;DHT22;65111;50.536;19.204;2023-04-25T08:36:54;16.30;54.30
76305;DHT22;65111;50.536;19.204;2023-04-25T08:39:20;16.40;54.80
76305;DHT22;65111;50.536;19.204;2023-04-25T08:41:47;16.40;54.90
76305;DHT22;65111;50.536;19.204;2023-04-25T08:44:13;16.50;54.30
76305;DHT22;65111;50.536;19.204;2023-04-25T08:46:40;16.60;54.50
76305;DHT22;65111;50.536;19.204;2023-04-25T08:49:07;16.80;53.70
76305;DHT22;65111;50.536;19.204;2023-04-25T08:51:46;16.90;53.50
76305;DHT22;65111;50.536;19.204;2023-04-25T08:54:14;16.90;53.20
76305;DHT22;65111;50.536;19.204;2023-04-25T08:56:43;16.90;52.60
76305;DHT22;65111;50.536;19.204;2023-04-25T08:59:13;16.90;52.30
76305;DHT22;65111;50.536;19.204;2023-04-25T09:01:39;16.90;52.30
76305;DHT22;65111;50.536;19.204;2023-04-25T09:04:05;16.80;52.30
76305;DHT22;65111;50.536;19.204;2023-04-25T09:06:32;16.80;52.00
76305;DHT22;65111;50.536;19.204;2023-04-25T09:09:04;16.70;52.00
76305;DHT22;65111;50.536;19.204;2023-04-25T09:11:32;16.70;52.10
76305;DHT22;65111;50.536;19.204;2023-04-25T09:14:18;16.80;52.00
76305;DHT22;65111;50.536;19.204;2023-04-25T09:19:22;17.60;51.30
76305;DHT22;65111;50.536;19.204;2023-04-25T09:21:49;18.20;49.50
76305;DHT22;65111;50.536;19.204;2023-04-25T09:24:15;18.90;48.40
76305;DHT22;65111;50.536;19.204;2023-04-25T09:26:41;19.50;47.10
76305;DHT22;65111;50.536;19.204;2023-04-25T09:29:09;20.10;46.40
76305;DHT22;65111;50.536;19.204;2023-04-25T09:31:36;20.80;45.50
76305;DHT22;65111;50.536;19.204;2023-04-25T09:34:02;21.40;44.50
76305;DHT22;65111;50.536;19.204;2023-04-25T09:36:30;21.90;43.60
76305;DHT22;65111;50.536;19.204;2023-04-25T09:38:59;22.50;41.80
76305;DHT22;65111;50.536;19.204;2023-04-25T09:41:26;22.70;41.20
76305;DHT22;65111;50.536;19.204;2023-04-25T09:43:57;22.90;40.20
76305;DHT22;65111;50.536;19.204;2023-04-25T09:46:24;22.90;40.60
76305;DHT22;65111;50.536;19.204;2023-04-25T09:48:51;22.90;40.00
76305;DHT22;65111;50.536;19.204;2023-04-25T09:51:19;22.90;40.00
76305;DHT22;65111;50.536;19.204;2023-04-25T09:53:46;22.90;40.10
76305;DHT22;65111;50.536;19.204;2023-04-25T09:56:15;22.70;39.50
76305;DHT22;65111;50.536;19.204;2023-04-25T09:58:42;22.50;39.30
76305;DHT22;65111;50.536;19.204;2023-04-25T10:01:10;22.40;39.70
76305;DHT22;65111;50.536;19.204;2023-04-25T10:03:40;22.30;39.90
76305;DHT22;65111;50.536;19.204;2023-04-25T10:06:29;22.10;40.00
76305;DHT22;65111;50.536;19.204;2023-04-25T10:08:55;22.00;39.30
76305;DHT22;65111;50.536;19.204;2023-04-25T10:11:23;21.70;39.60
76305;DHT22;65111;50.536;19.204;2023-04-25T10:13:51;21.30;39.60
76305;DHT22;65111;50.536;19.204;2023-04-25T10:16:17;20.90;40.50
76305;DHT22;65111;50.536;19.204;2023-04-25T10:18:43;20.50;40.80
76305;DHT22;65111;50.536;19.204;2023-04-25T10:21:10;20.30;41.10
76305;DHT22;65111;50.536;19.204;2023-04-25T10:23:37;20.20;41.00
76305;DHT22;65111;50.536;19.204;2023-04-25T10:26:03;20.00;41.00
76305;DHT22;65111;50.536;19.204;2023-04-25T10:28:59;19.90;41.30
76305;DHT22;65111;50.536;19.204;2023-04-25T10:31:27;19.90;41.20
76305;DHT22;65111;50.536;19.204;2023-04-25T10:33:53;19.90;41.10
76305;DHT22;65111;50.536;19.204;2023-04-25T10:36:21;19.90;41.30
76305;DHT22;65111;50.536;19.204;2023-04-25T10:38:49;19.90;41.00
76305;DHT22;65111;50.536;19.204;2023-04-25T10:41:21;20.00;40.90
76305;DHT22;65111;50.536;19.204;2023-04-25T10:43:49;20.10;40.80
76305;DHT22;65111;50.536;19.204;2023-04-25T10:46:27;20.20;40.50
76305;DHT22;65111;50.536;19.204;2023-04-25T10:48:58;20.30;39.70
76305;DHT22;65111;50.536;19.204;2023-04-25T10:51:28;20.40;40.00
76305;DHT22;65111;50.536;19.204;2023-04-25T10:56:38;20.60;39.60
76305;DHT22;65111;50.536;19.204;2023-04-25T10:59:15;20.70;39.80
76305;DHT22;65111;50.536;19.204;2023-04-25T11:01:43;20.80;39.60
76305;DHT22;65111;50.536;19.204;2023-04-25T11:04:30;20.80;39.30
76305;DHT22;65111;50.536;19.204;2023-04-25T11:10:04;20.30;39.30
76305;DHT22;65111;50.536;19.204;2023-04-25T11:12:31;20.20;39.50
76305;DHT22;65111;50.536;19.204;2023-04-25T11:15:05;20.10;39.20
76305;DHT22;65111;50.536;19.204;2023-04-25T11:17:31;19.90;39.60
76305;DHT22;65111;50.536;19.204;2023-04-25T11:19:59;19.90;39.70
76305;DHT22;65111;50.536;19.204;2023-04-25T11:22:27;20.00;39.70
76305;DHT22;65111;50.536;19.204;2023-04-25T11:24:53;19.90;39.60
76305;DHT22;65111;50.536;19.204;2023-04-25T11:27:20;19.60;40.10
76305;DHT22;65111;50.536;19.204;2023-04-25T11:29:46;19.40;40.40
76305;DHT22;65111;50.536;19.204;2023-04-25T11:32:17;19.20;40.50
76305;DHT22;65111;50.536;19.204;2023-04-25T11:34:44;19.30;40.70
76305;DHT22;65111;50.536;19.204;2023-04-25T11:37:11;19.00;40.60
76305;DHT22;65111;50.536;19.204;2023-04-25T11:39:38;19.00;40.60
76305;DHT22;65111;50.536;19.204;2023-04-25T11:42:04;19.00;41.00
76305;DHT22;65111;50.536;19.204;2023-04-25T11:44:31;19.00;41.30
76305;DHT22;65111;50.536;19.204;2023-04-25T11:46:57;19.00;41.20
76305;DHT22;65111;50.536;19.204;2023-04-25T11:49:23;18.90;41.40
76305;DHT22;65111;50.536;19.204;2023-04-25T11:51:50;18.90;41.30
76305;DHT22;65111;50.536;19.204;2023-04-25T11:54:16;18.90;41.60
76305;DHT22;65111;50.536;19.204;2023-04-25T11:56:43;18.90;41.50
76305;DHT22;65111;50.536;19.204;2023-04-25T11:59:09;18.70;41.20
76305;DHT22;65111;50.536;19.204;2023-04-25T12:01:37;18.70;41.40
76305;DHT22;65111;50.536;19.204;2023-04-25T12:04:15;18.50;41.40
76305;DHT22;65111;50.536;19.204;2023-04-25T12:06:42;18.40;41.50
76305;DHT22;65111;50.536;19.204;2023-04-25T12:09:10;18.30;41.50
76305;DHT22;65111;50.536;19.204;2023-04-25T12:11:46;18.30;41.60
76305;DHT22;65111;50.536;19.204;2023-04-25T12:14:22;18.00;42.10
76305;DHT22;65111;50.536;19.204;2023-04-25T12:16:49;17.80;42.70
76305;DHT22;65111;50.536;19.204;2023-04-25T12:19:18;17.50;42.90
76305;DHT22;65111;50.536;19.204;2023-04-25T12:21:45;17.40;43.60
76305;DHT22;65111;50.536;19.204;2023-04-25T12:24:15;17.20;43.80
76305;DHT22;65111;50.536;19.204;2023-04-25T12:27:01;17.20;43.70
76305;DHT22;65111;50.536;19.204;2023-04-25T12:29:29;17.20;44.10
76305;DHT22;65111;50.536;19.204;2023-04-25T12:31:55;17.10;44.20
76305;DHT22;65111;50.536;19.204;2023-04-25T12:34:23;17.20;44.10
76305;DHT22;65111;50.536;19.204;2023-04-25T12:36:51;17.10;44.40
76305;DHT22;65111;50.536;19.204;2023-04-25T12:39:23;17.00;44.30
76305;DHT22;65111;50.536;19.204;2023-04-25T12:41:50;17.00;44.20
76305;DHT22;65111;50.536;19.204;2023-04-25T12:44:17;16.80;44.50
76305;DHT22;65111;50.536;19.204;2023-04-25T12:46:43;16.80;44.80
76305;DHT22;65111;50.536;19.204;2023-04-25T12:49:09;16.80;44.90
76305;DHT22;65111;50.536;19.204;2023-04-25T12:51:36;16.80;45.10
76305;DHT22;65111;50.536;19.204;2023-04-25T12:54:03;16.90;44.80
76305;DHT22;65111;50.536;19.204;2023-04-25T12:56:31;16.80;44.80
76305;DHT22;65111;50.536;19.204;2023-04-25T12:58:57;16.70;45.10
76305;DHT22;65111;50.536;19.204;2023-04-25T13:01:24;16.60;45.40
76305;DHT22;65111;50.536;19.204;2023-04-25T13:03:53;16.50;45.30
76305;DHT22;65111;50.536;19.204;2023-04-25T13:06:20;16.40;45.50
76305;DHT22;65111;50.536;19.204;2023-04-25T13:08:46;16.20;45.70
76305;DHT22;65111;50.536;19.204;2023-04-25T13:11:12;16.10;45.80
76305;DHT22;65111;50.536;19.204;2023-04-25T13:13:40;16.00;46.00
76305;DHT22;65111;50.536;19.204;2023-04-25T13:16:07;15.80;46.30
76305;DHT22;65111;50.536;19.204;2023-04-25T13:18:33;15.80;46.70
76305;DHT22;65111;50.536;19.204;2023-04-25T13:21:00;15.70;46.70
76305;DHT22;65111;50.536;19.204;2023-04-25T13:23:27;15.60;46.90
76305;DHT22;65111;50.536;19.204;2023-04-25T13:25:54;15.40;47.20
76305;DHT22;65111;50.536;19.204;2023-04-25T13:28:21;15.40;47.20
76305;DHT22;65111;50.536;19.204;2023-04-25T13:30:47;15.40;47.90
76305;DHT22;65111;50.536;19.204;2023-04-25T13:33:14;15.30;48.00
76305;DHT22;65111;50.536;19.204;2023-04-25T13:35:41;15.30;48.30
76305;DHT22;65111;50.536;19.204;2023-04-25T13:38:07;15.30;48.60
76305;DHT22;65111;50.536;19.204;2023-04-25T13:40:35;15.20;48.90
76305;DHT22;65111;50.536;19.204;2023-04-25T13:43:01;15.20;48.90
76305;DHT22;65111;50.536;19.204;2023-04-25T13:45:27;15.20;48.60
76305;DHT22;65111;50.536;19.204;2023-04-25T13:47:53;15.30;48.50
76305;DHT22;65111;50.536;19.204;2023-04-25T13:50:19;15.20;48.40
76305;DHT22;65111;50.536;19.204;2023-04-25T13:52:46;15.10;48.60
76305;DHT22;65111;50.536;19.204;2023-04-25T13:55:12;15.20;48.90
76305;DHT22;65111;50.536;19.204;2023-04-25T13:57:38;15.30;49.00
76305;DHT22;65111;50.536;19.204;2023-04-25T14:00:05;15.30;49.00
76305;DHT22;65111;50.536;19.204;2023-04-25T14:02:37;15.40;49.10
76305;DHT22;65111;50.536;19.204;2023-04-25T14:05:04;15.50;48.70
76305;DHT22;65111;50.536;19.204;2023-04-25T14:07:31;15.50;48.20
76305;DHT22;65111;50.536;19.204;2023-04-25T14:09:57;15.60;48.00
76305;DHT22;65111;50.536;19.204;2023-04-25T14:12:23;15.60;48.10
76305;DHT22;65111;50.536;19.204;2023-04-25T14:14:51;15.60;48.10
76305;DHT22;65111;50.536;19.204;2023-04-25T14:17:19;15.50;48.00
76305;DHT22;65111;50.536;19.204;2023-04-25T14:19:45;15.40;48.20
76305;DHT22;65111;50.536;19.204;2023-04-25T14:22:11;15.30;48.70
76305;DHT22;65111;50.536;19.204;2023-04-25T14:24:37;15.00;49.30
76305;DHT22;65111;50.536;19.204;2023-04-25T14:27:04;14.80;49.70
76305;DHT22;65111;50.536;19.204;2023-04-25T14:29:30;14.70;50.00
76305;DHT22;65111;50.536;19.204;2023-04-25T14:31:56;14.60;50.10
76305;DHT22;65111;50.536;19.204;2023-04-25T14:34:23;14.60;50.30
76305;DHT22;65111;50.536;19.204;2023-04-25T14:36:50;14.50;50.40
76305;DHT22;65111;50.536;19.204;2023-04-25T14:39:17;14.50;50.40
76305;DHT22;65111;50.536;19.204;2023-04-25T14:41:44;14.50;50.80
76305;DHT22;65111;50.536;19.204;2023-04-25T14:44:10;14.50;50.80
76305;DHT22;65111;50.536;19.204;2023-04-25T14:46:36;14.70;50.60
76305;DHT22;65111;50.536;19.204;2023-04-25T14:49:03;14.90;50.70
76305;DHT22;65111;50.536;19.204;2023-04-25T14:51:29;15.00;50.80
76305;DHT22;65111;50.536;19.204;2023-04-25T14:53:55;15.20;50.70
76305;DHT22;65111;50.536;19.204;2023-04-25T14:56:22;15.40;50.00
76305;DHT22;65111;50.536;19.204;2023-04-25T14:58:48;15.70;49.40
76305;DHT22;65111;50.536;19.204;2023-04-25T15:01:14;15.80;48.80
76305;DHT22;65111;50.536;19.204;2023-04-25T15:03:40;16.10;48.60
76305;DHT22;65111;50.536;19.204;2023-04-25T15:06:07;16.10;48.30
76305;DHT22;65111;50.536;19.204;2023-04-25T15:08:33;16.10;48.30
76305;DHT22;65111;50.536;19.204;2023-04-25T15:11:00;16.20;48.20
76305;DHT22;65111;50.536;19.204;2023-04-25T15:13:26;16.30;47.70
76305;DHT22;65111;50.536;19.204;2023-04-25T15:15:52;16.40;48.30
76305;DHT22;65111;50.536;19.204;2023-04-25T15:18:23;16.50;48.30
76305;DHT22;65111;50.536;19.204;2023-04-25T15:20:52;16.60;47.80
76305;DHT22;65111;50.536;19.204;2023-04-25T15:23:19;16.60;47.70
76305;DHT22;65111;50.536;19.204;2023-04-25T15:25:46;16.70;47.30